Time;durP1;ratioP1;P1;durP2;ratioP2;P2;SDS_P1;SDS_P2;PMS_P1;PMS_P2;Temp;Humidity;BMP_temperature;BMP_pressure;BME280_temperature;BME280_humidity;BME280_pressure;Samples;Min_cycle;Max_cycle;Signal;HPM_P1;HPM_P2
2023/09/16 00:00:52;;;;;;;4.57;4.20;;;16.10;99.90;;;;;;5032848;28;20224;-65
2023/09/16 00:03:20;;;;;;;8.07;4.47;;;16.00;99.90;;;;;;5022276;28;20235;-65
2023/09/16 00:05:49;;;;;;;5.30;4.23;;;16.00;99.90;;;;;;5030350;28;20209;-65
2023/09/16 00:08:17;;;;;;;5.00;4.70;;;16.00;99.90;;;;;;5032235;28;20224;-65
2023/09/16 00:10:45;;;;;;;4.70;4.30;;;15.90;99.90;;;;;;5028281;28;20221;-65
2023/09/16 00:13:15;;;;;;;7.57;4.70;;;15.90;99.90;;;;;;5024358;28;20230;-65
2023/09/16 00:15:48;;;;;;;5.47;4.93;;;15.80;99.90;;;;;;5027928;28;20237;-65
2023/09/16 00:18:17;;;;;;;5.07;4.57;;;15.80;99.90;;;;;;5030890;28;20724;-65
2023/09/16 00:20:48;;;;;;;4.83;4.33;;;15.80;99.90;;;;;;5035145;28;20223;-64
2023/09/16 00:23:16;;;;;;;6.27;4.60;;;15.80;99.90;;;;;;5034835;28;20309;-65
2023/09/16 00:25:45;;;;;;;5.80;4.43;;;15.70;99.90;;;;;;5033540;28;20241;-65
2023/09/16 00:28:15;;;;;;;6.50;4.60;;;15.70;99.90;;;;;;5036161;28;20227;-65
2023/09/16 00:30:45;;;;;;;5.53;5.03;;;15.70;99.90;;;;;;5032286;28;20238;-65
2023/09/16 00:33:14;;;;;;;5.40;5.00;;;15.70;99.90;;;;;;5034174;28;20230;-64
2023/09/16 00:35:42;;;;;;;10.60;4.60;;;15.60;99.90;;;;;;5033943;28;20193;-65
2023/09/16 00:38:10;;;;;;;7.33;4.83;;;15.60;99.90;;;;;;5032049;28;20623;-65
2023/09/16 00:40:39;;;;;;;6.20;5.57;;;15.60;99.90;;;;;;5033324;28;20669;-64
2023/09/16 00:43:08;;;;;;;5.67;5.10;;;15.60;99.90;;;;;;5028885;28;20214;-65
2023/09/16 00:45:41;;;;;;;5.40;4.90;;;15.50;99.90;;;;;;5027401;28;20224;-65
2023/09/16 00:48:10;;;;;;;5.37;4.87;;;15.50;99.90;;;;;;5032041;28;20188;-65
2023/09/16 00:50:39;;;;;;;6.00;5.40;;;15.40;99.90;;;;;;5035846;28;20200;-65
2023/09/16 00:53:07;;;;;;;7.13;4.67;;;15.40;99.90;;;;;;5035784;28;20277;-65
2023/09/16 00:55:35;;;;;;;10.20;4.83;;;15.40;99.90;;;;;;5037883;28;20222;-64
2023/09/16 00:58:04;;;;;;;6.23;4.80;;;15.30;99.90;;;;;;5032580;28;20734;-64
2023/09/16 01:00:33;;;;;;;5.90;5.40;;;15.30;99.90;;;;;;5036130;28;20231;-64
2023/09/16 01:03:04;;;;;;;6.03;5.10;;;15.30;99.90;;;;;;5030013;28;20197;-64
2023/09/16 01:05:34;;;;;;;6.13;5.30;;;15.20;99.90;;;;;;5034491;28;20973;-65
2023/09/16 01:08:03;;;;;;;6.17;5.20;;;15.20;99.90;;;;;;5047734;28;20655;-65
2023/09/16 01:10:32;;;;;;;6.33;5.10;;;15.10;99.90;;;;;;5036237;28;20683;-65
2023/09/16 01:13:01;;;;;;;7.30;4.83;;;15.10;99.90;;;;;;5028961;28;20314;-65
2023/09/16 01:15:35;;;;;;;5.77;4.57;;;15.10;99.90;;;;;;5028577;28;20278;-65
2023/09/16 01:18:12;;;;;;;8.90;5.30;;;15.00;99.90;;;;;;5027695;28;20197;-64
2023/09/16 01:20:41;;;;;;;7.07;5.17;;;15.00;99.90;;;;;;5031787;28;20249;-64
2023/09/16 01:23:10;;;;;;;8.40;5.00;;;15.00;99.90;;;;;;5030566;28;20222;-64
2023/09/16 01:25:39;;;;;;;6.03;5.47;;;14.90;99.90;;;;;;5029000;28;20227;-65
2023/09/16 01:28:08;;;;;;;6.60;5.70;;;14.90;99.90;;;;;;5035764;28;20223;-65
2023/09/16 01:30:44;;;;;;;5.57;5.07;;;14.90;99.90;;;;;;5033130;28;20236;-65
2023/09/16 01:33:18;;;;;;;6.37;5.27;;;14.80;99.90;;;;;;5025603;28;20257;-64
2023/09/16 01:35:49;;;;;;;6.13;5.53;;;14.80;99.90;;;;;;5022309;28;20209;-64
2023/09/16 01:38:20;;;;;;;6.80;5.53;;;14.80;99.90;;;;;;5029365;28;20218;-64
2023/09/16 01:40:52;;;;;;;6.17;5.67;;;14.80;99.90;;;;;;5020247;28;20221;-65
2023/09/16 01:43:20;;;;;;;6.40;5.90;;;14.80;99.90;;;;;;5026221;28;20219;-65
2023/09/16 01:45:49;;;;;;;8.40;6.17;;;14.80;99.90;;;;;;5030788;28;20225;-65
2023/09/16 01:48:17;;;;;;;6.30;5.70;;;14.70;99.90;;;;;;5029526;28;20224;-65
2023/09/16 01:50:52;;;;;;;5.80;5.27;;;14.70;99.90;;;;;;5034631;28;20276;-64
2023/09/16 01:53:20;;;;;;;7.00;5.93;;;14.60;99.90;;;;;;5033531;28;20221;-65
2023/09/16 01:55:50;;;;;;;6.20;5.67;;;14.60;99.90;;;;;;5032422;28;20667;-65
2023/09/16 01:58:18;;;;;;;10.53;5.87;;;14.60;99.90;;;;;;5035350;28;20785;-64
2023/09/16 02:00:47;;;;;;;8.50;5.80;;;14.50;99.90;;;;;;5024264;28;20214;-65
2023/09/16 02:03:15;;;;;;;6.13;5.63;;;14.50;99.90;;;;;;5020465;28;20202;-64
2023/09/16 02:05:44;;;;;;;6.10;5.60;;;14.50;99.90;;;;;;5028675;28;20194;-64
2023/09/16 02:08:12;;;;;;;13.33;6.50;;;14.50;99.90;;;;;;5025424;28;20215;-64
2023/09/16 02:10:40;;;;;;;6.17;5.57;;;14.50;99.90;;;;;;5030524;28;20223;-65
2023/09/16 02:13:10;;;;;;;5.93;5.33;;;14.50;99.90;;;;;;5024712;28;20234;-64
2023/09/16 02:15:38;;;;;;;5.97;5.37;;;14.40;99.90;;;;;;5033788;28;20656;-64
2023/09/16 02:18:07;;;;;;;6.17;5.60;;;14.40;99.90;;;;;;5030971;28;20187;-65
2023/09/16 02:20:35;;;;;;;6.07;5.47;;;14.40;99.90;;;;;;5023012;28;20533;-64
2023/09/16 02:23:04;;;;;;;5.80;5.20;;;14.40;99.90;;;;;;5030555;28;20226;-64
2023/09/16 02:25:34;;;;;;;6.03;5.30;;;14.40;99.90;;;;;;5032291;28;20229;-65
2023/09/16 02:28:02;;;;;;;5.93;5.43;;;14.30;99.90;;;;;;5035417;28;20227;-64
2023/09/16 02:30:32;;;;;;;7.60;6.50;;;14.30;99.90;;;;;;5028005;28;20231;-65
2023/09/16 02:33:00;;;;;;;6.53;6.03;;;14.30;99.90;;;;;;5030333;28;20214;-64
2023/09/16 02:35:29;;;;;;;7.17;6.47;;;14.30;99.90;;;;;;5031352;28;20668;-65
2023/09/16 02:37:58;;;;;;;7.50;6.23;;;14.30;99.90;;;;;;5047394;28;20224;-65
2023/09/16 02:40:29;;;;;;;10.50;6.30;;;14.30;99.90;;;;;;5055655;28;20221;-64
2023/09/16 02:42:58;;;;;;;9.87;6.23;;;14.30;99.90;;;;;;5056545;28;20221;-64
2023/09/16 02:45:26;;;;;;;6.63;6.03;;;14.30;99.90;;;;;;5054336;28;20255;-64
2023/09/16 02:47:56;;;;;;;6.63;5.93;;;14.20;99.90;;;;;;5049689;28;20208;-64
2023/09/16 02:50:24;;;;;;;5.70;5.30;;;14.20;99.90;;;;;;5045185;28;20758;-65
2023/09/16 02:52:52;;;;;;;6.40;5.80;;;14.20;99.90;;;;;;5050850;28;20699;-64
2023/09/16 02:55:22;;;;;;;6.20;5.70;;;14.20;99.90;;;;;;5056004;28;20693;-65
2023/09/16 02:57:50;;;;;;;6.20;5.70;;;14.10;99.90;;;;;;5052212;28;20219;-64
2023/09/16 03:00:18;;;;;;;7.57;6.20;;;14.10;99.90;;;;;;5051898;28;20199;-64
2023/09/16 03:02:48;;;;;;;7.23;6.50;;;14.20;99.90;;;;;;5047396;28;20200;-64
2023/09/16 03:05:19;;;;;;;7.73;6.67;;;14.20;99.90;;;;;;5052456;28;20229;-64
2023/09/16 03:07:48;;;;;;;6.57;5.97;;;14.20;99.90;;;;;;5050947;28;20699;-64
2023/09/16 03:10:17;;;;;;;8.30;6.47;;;14.10;99.90;;;;;;5047879;28;20232;-64
2023/09/16 03:12:45;;;;;;;9.53;5.90;;;14.00;99.90;;;;;;5053472;28;20229;-65
2023/09/16 03:15:13;;;;;;;7.47;6.40;;;14.00;99.90;;;;;;5054649;28;20226;-64
2023/09/16 03:17:42;;;;;;;8.60;6.87;;;13.90;99.90;;;;;;5050024;28;20231;-64
2023/09/16 03:20:26;;;;;;;7.77;6.57;;;13.90;99.90;;;;;;5052232;28;20221;-64
2023/09/16 03:22:54;;;;;;;7.23;6.50;;;13.90;99.90;;;;;;5054826;28;20232;-64
2023/09/16 03:25:23;;;;;;;6.47;5.80;;;13.90;99.90;;;;;;5050337;28;21014;-64
2023/09/16 03:27:51;;;;;;;10.00;6.67;;;13.90;99.90;;;;;;5054372;28;20226;-65
2023/09/16 03:30:20;;;;;;;7.40;6.70;;;13.90;99.90;;;;;;5056751;28;20687;-64
2023/09/16 03:32:48;;;;;;;8.90;6.50;;;13.90;99.90;;;;;;5053902;28;20196;-64
2023/09/16 03:35:17;;;;;;;8.57;6.53;;;13.90;99.90;;;;;;5056119;28;20256;-64
2023/09/16 03:37:47;;;;;;;7.63;6.90;;;13.90;99.90;;;;;;5054483;28;20271;-64
2023/09/16 03:40:15;;;;;;;12.97;6.93;;;13.90;99.90;;;;;;5058816;28;20222;-65
2023/09/16 03:42:43;;;;;;;7.80;6.40;;;13.90;99.90;;;;;;5047903;28;20237;-64
2023/09/16 03:45:12;;;;;;;6.80;6.20;;;13.90;99.90;;;;;;5055242;28;20198;-64
2023/09/16 03:47:56;;;;;;;6.80;5.93;;;13.90;99.90;;;;;;5050135;28;20635;-65
2023/09/16 03:50:25;;;;;;;6.57;6.00;;;13.80;99.90;;;;;;5052963;28;20585;-64
2023/09/16 03:52:55;;;;;;;13.97;6.80;;;13.80;99.90;;;;;;5055430;28;20231;-64
2023/09/16 03:55:23;;;;;;;6.80;6.20;;;13.80;99.90;;;;;;5055435;28;20695;-64
2023/09/16 03:57:51;;;;;;;6.43;5.83;;;13.80;99.90;;;;;;5052311;28;20229;-64
2023/09/16 04:00:20;;;;;;;7.93;6.17;;;13.70;99.90;;;;;;5051030;28;20251;-64
2023/09/16 04:02:48;;;;;;;9.47;6.10;;;13.70;99.90;;;;;;5045237;28;20212;-64
2023/09/16 04:05:17;;;;;;;6.97;6.27;;;13.70;99.90;;;;;;5053127;28;20213;-64
2023/09/16 04:07:46;;;;;;;6.70;6.07;;;13.70;99.90;;;;;;5053254;28;20232;-64
2023/09/16 04:10:15;;;;;;;9.83;7.70;;;13.70;99.90;;;;;;5050080;28;20226;-64
2023/09/16 04:12:44;;;;;;;8.50;7.17;;;13.60;99.90;;;;;;5047329;28;20347;-64
2023/09/16 04:15:12;;;;;;;8.87;7.97;;;13.60;99.90;;;;;;5053787;28;21208;-64
2023/09/16 04:17:40;;;;;;;9.53;8.63;;;13.70;99.90;;;;;;5053321;28;20205;-64
2023/09/16 04:20:10;;;;;;;13.77;8.80;;;13.60;99.90;;;;;;5051750;28;20222;-64
2023/09/16 04:22:39;;;;;;;10.27;9.27;;;13.60;99.90;;;;;;5052103;28;20268;-64
2023/09/16 04:25:07;;;;;;;10.63;8.77;;;13.60;99.90;;;;;;5053413;28;20225;-64
2023/09/16 04:27:37;;;;;;;12.57;9.17;;;13.50;99.90;;;;;;5046558;28;20312;-64
2023/09/16 04:30:06;;;;;;;11.83;8.83;;;13.50;99.90;;;;;;5043762;28;20232;-64
2023/09/16 04:32:35;;;;;;;12.50;9.63;;;13.50;99.90;;;;;;5045708;28;20235;-64
2023/09/16 04:35:03;;;;;;;12.00;9.63;;;13.50;99.90;;;;;;5052699;28;20731;-64
2023/09/16 04:37:31;;;;;;;12.27;8.90;;;13.50;99.90;;;;;;5049426;28;20217;-64
2023/09/16 04:40:00;;;;;;;10.13;9.03;;;13.50;99.90;;;;;;5053303;28;20227;-64
2023/09/16 04:42:30;;;;;;;12.17;9.10;;;13.50;99.90;;;;;;5054784;28;20241;-64
2023/09/16 04:45:00;;;;;;;9.83;8.83;;;13.50;99.90;;;;;;5050230;28;20189;-64
2023/09/16 04:47:30;;;;;;;10.93;9.10;;;13.50;99.90;;;;;;5031389;28;20553;-64
2023/09/16 04:49:59;;;;;;;12.67;7.77;;;13.50;99.90;;;;;;5063080;28;20312;-64
2023/09/16 04:52:28;;;;;;;14.73;8.53;;;13.50;99.90;;;;;;5031360;28;20213;-64
2023/09/16 04:54:56;;;;;;;13.63;8.33;;;13.50;99.90;;;;;;5030221;28;20230;-64
2023/09/16 04:57:25;;;;;;;11.10;7.93;;;13.50;99.90;;;;;;5030222;28;20322;-64
2023/09/16 04:59:53;;;;;;;14.50;8.30;;;13.40;99.90;;;;;;5033291;28;20213;-64
2023/09/16 05:02:23;;;;;;;10.43;7.83;;;13.40;99.90;;;;;;5022649;28;20359;-64
2023/09/16 05:04:51;;;;;;;12.53;8.03;;;13.40;99.90;;;;;;5033765;28;20300;-64
2023/09/16 05:07:20;;;;;;;17.37;8.50;;;13.30;99.90;;;;;;5029981;28;20221;-64
2023/09/16 05:09:48;;;;;;;13.13;8.10;;;13.30;99.90;;;;;;5030740;28;20276;-64
2023/09/16 05:12:17;;;;;;;10.87;8.00;;;13.30;99.90;;;;;;5028178;28;20198;-64
2023/09/16 05:14:46;;;;;;;12.97;9.03;;;13.30;99.90;;;;;;5032272;28;20213;-64
2023/09/16 05:17:14;;;;;;;10.50;7.80;;;13.30;99.90;;;;;;5039155;28;20217;-64
2023/09/16 05:19:44;;;;;;;14.30;8.63;;;13.40;99.90;;;;;;5030289;28;20217;-64
2023/09/16 05:22:14;;;;;;;11.40;8.80;;;13.40;99.90;;;;;;5032250;28;20620;-64
2023/09/16 05:24:42;;;;;;;10.87;8.93;;;13.30;99.90;;;;;;5034210;28;20226;-64
2023/09/16 05:27:11;;;;;;;18.00;10.40;;;13.30;99.90;;;;;;5032148;28;20201;-64
2023/09/16 05:29:39;;;;;;;14.20;10.03;;;13.30;99.90;;;;;;5031017;28;20198;-64
2023/09/16 05:32:07;;;;;;;16.00;10.27;;;13.30;99.90;;;;;;5019920;28;20216;-64
2023/09/16 05:34:36;;;;;;;14.30;10.77;;;13.40;99.90;;;;;;5022520;28;20215;-64
2023/09/16 05:37:05;;;;;;;17.67;10.03;;;13.40;99.90;;;;;;5032558;28;20218;-64
2023/09/16 05:39:34;;;;;;;12.20;10.53;;;13.40;99.90;;;;;;5028668;28;20916;-64
2023/09/16 05:42:02;;;;;;;14.00;10.93;;;13.40;99.90;;;;;;5025023;28;20217;-64
2023/09/16 05:44:30;;;;;;;13.90;10.73;;;13.40;99.90;;;;;;5025593;28;20206;-64
2023/09/16 05:46:59;;;;;;;14.80;11.93;;;13.50;99.90;;;;;;5025841;28;20722;-64
2023/09/16 05:49:29;;;;;;;16.90;11.20;;;13.60;99.90;;;;;;5020772;28;20231;-64
2023/09/16 05:51:58;;;;;;;14.93;12.53;;;13.60;99.90;;;;;;5029570;28;20230;-63
2023/09/16 05:54:28;;;;;;;15.00;11.40;;;13.60;99.90;;;;;;5025992;28;20226;-64
2023/09/16 05:56:56;;;;;;;14.33;10.93;;;13.70;99.90;;;;;;5025035;28;20196;-64
2023/09/16 05:59:25;;;;;;;14.93;12.07;;;13.80;99.90;;;;;;5029198;28;20265;-64
2023/09/16 06:01:53;;;;;;;18.67;11.43;;;13.80;99.90;;;;;;5039534;28;20218;-65
2023/09/16 06:04:21;;;;;;;17.40;11.83;;;13.80;99.90;;;;;;5047292;28;20249;-64
2023/09/16 06:06:50;;;;;;;18.80;12.67;;;13.90;99.90;;;;;;5054518;28;20228;-64
2023/09/16 06:09:18;;;;;;;15.57;12.17;;;13.90;99.90;;;;;;5048312;28;20223;-63
2023/09/16 06:11:48;;;;;;;13.23;11.57;;;14.00;99.90;;;;;;5056875;28;20209;-64
2023/09/16 06:14:16;;;;;;;14.77;12.03;;;14.00;99.90;;;;;;5046909;28;20679;-64
2023/09/16 06:16:44;;;;;;;15.40;11.67;;;14.00;99.90;;;;;;5057637;28;20230;-64
2023/09/16 06:19:13;;;;;;;14.13;11.77;;;14.10;99.90;;;;;;5047584;28;20233;-64
2023/09/16 06:21:41;;;;;;;12.53;11.23;;;14.20;99.90;;;;;;5047870;28;20225;-64
2023/09/16 06:24:10;;;;;;;15.10;11.90;;;14.20;99.90;;;;;;5047830;28;20630;-64
2023/09/16 06:26:38;;;;;;;18.40;12.70;;;14.30;99.90;;;;;;5054139;28;20206;-64
2023/09/16 06:29:08;;;;;;;15.73;10.93;;;14.40;99.90;;;;;;5051885;28;20301;-64
2023/09/16 06:31:36;;;;;;;14.57;10.37;;;14.40;99.90;;;;;;5049188;28;20231;-64
2023/09/16 06:34:05;;;;;;;12.47;9.83;;;14.50;99.90;;;;;;5055292;28;20244;-64
2023/09/16 06:36:34;;;;;;;12.23;10.97;;;14.60;99.90;;;;;;5053659;28;20223;-64
2023/09/16 06:39:05;;;;;;;15.53;11.23;;;14.70;99.90;;;;;;5058756;28;20193;-64
2023/09/16 06:41:33;;;;;;;13.67;10.57;;;14.80;99.90;;;;;;5057294;28;20203;-64
2023/09/16 06:44:01;;;;;;;15.50;10.83;;;14.90;99.90;;;;;;5039260;28;20225;-64
2023/09/16 06:46:31;;;;;;;12.63;10.93;;;15.00;99.90;;;;;;5033208;28;20223;-64
2023/09/16 06:49:00;;;;;;;9.87;8.87;;;15.00;99.90;;;;;;5037487;28;20228;-64
2023/09/16 06:51:28;;;;;;;12.53;10.30;;;15.20;99.90;;;;;;5035948;28;20223;-64
2023/09/16 06:53:56;;;;;;;15.07;9.67;;;15.30;99.90;;;;;;5037092;28;20200;-64
2023/09/16 06:56:24;;;;;;;15.70;9.80;;;15.40;99.90;;;;;;5037505;28;20230;-64
2023/09/16 06:58:56;;;;;;;16.87;10.70;;;15.60;99.90;;;;;;5038432;28;20312;-65
2023/09/16 07:01:43;;;;;;;15.13;10.87;;;15.80;99.90;;;;;;5036569;28;20230;-65
2023/09/16 07:04:12;;;;;;;12.30;10.10;;;16.10;99.90;;;;;;5042115;28;20244;-64
2023/09/16 07:06:40;;;;;;;12.67;8.83;;;16.30;99.90;;;;;;5041200;28;20213;-65
2023/09/16 07:09:10;;;;;;;13.10;10.03;;;16.40;99.90;;;;;;5041058;28;20201;-64
2023/09/16 07:11:39;;;;;;;10.87;9.53;;;16.60;99.90;;;;;;5037341;28;20201;-64
2023/09/16 07:14:07;;;;;;;11.03;9.80;;;16.80;99.90;;;;;;5038415;28;20220;-65
2023/09/16 07:16:38;;;;;;;11.27;9.30;;;17.00;99.90;;;;;;5041529;28;20225;-65
2023/09/16 07:19:08;;;;;;;11.67;9.50;;;17.10;99.90;;;;;;5042575;28;20727;-65
2023/09/16 07:21:37;;;;;;;11.67;9.17;;;17.30;99.90;;;;;;5038967;28;20245;-65
2023/09/16 07:24:06;;;;;;;15.17;9.97;;;17.40;99.90;;;;;;5041658;28;20529;-64
2023/09/16 07:26:36;;;;;;;13.50;8.60;;;17.50;99.90;;;;;;5034654;28;20659;-65
2023/09/16 07:29:04;;;;;;;11.00;8.90;;;17.70;99.90;;;;;;5041594;28;20286;-65
2023/09/16 07:31:32;;;;;;;15.80;10.13;;;17.90;99.90;;;;;;5035928;28;20502;-65
2023/09/16 07:34:01;;;;;;;12.23;8.97;;;18.00;99.90;;;;;;5038332;28;20466;-65
2023/09/16 07:36:31;;;;;;;12.10;9.30;;;18.00;99.90;;;;;;5042848;28;20251;-65
2023/09/16 07:39:00;;;;;;;11.03;8.43;;;18.10;99.90;;;;;;5060561;28;20223;-65
2023/09/16 07:41:28;;;;;;;9.10;8.20;;;18.20;99.90;;;;;;5055231;28;20304;-65
2023/09/16 07:43:56;;;;;;;9.47;8.23;;;18.30;99.90;;;;;;5057649;28;20303;-65
2023/09/16 07:46:25;;;;;;;10.70;9.07;;;18.40;99.90;;;;;;5047107;28;20299;-65
2023/09/16 07:48:53;;;;;;;11.30;8.77;;;18.50;99.90;;;;;;5056589;28;20216;-65
2023/09/16 07:51:22;;;;;;;9.27;8.35;;;18.70;99.90;;;;;;5057648;28;20432;-65
2023/09/16 07:53:51;;;;;;;8.47;7.67;;;18.90;99.90;;;;;;5058293;28;20192;-65
2023/09/16 07:56:20;;;;;;;9.10;8.10;;;19.10;99.90;;;;;;5057231;28;20217;-65
2023/09/16 07:58:49;;;;;;;9.43;8.37;;;19.10;99.90;;;;;;5057290;28;20236;-65
2023/09/16 08:01:18;;;;;;;12.50;7.90;;;19.10;99.90;;;;;;5052047;28;20231;-65
2023/09/16 08:03:46;;;;;;;9.00;7.97;;;19.10;99.90;;;;;;5051784;28;20225;-65
2023/09/16 08:06:15;;;;;;;8.20;7.40;;;19.20;99.90;;;;;;5050086;28;20283;-65
2023/09/16 08:08:43;;;;;;;9.93;7.57;;;19.30;99.90;;;;;;5057243;28;20280;-65
2023/09/16 08:11:13;;;;;;;7.57;6.87;;;19.40;99.90;;;;;;5054442;28;20219;-65
2023/09/16 08:13:42;;;;;;;11.40;7.53;;;19.50;99.90;;;;;;5054356;28;20270;-65
2023/09/16 08:16:11;;;;;;;9.80;7.37;;;19.60;99.90;;;;;;5057618;28;20307;-65
2023/09/16 08:18:39;;;;;;;9.53;7.47;;;19.70;99.90;;;;;;5055870;28;20632;-65
2023/09/16 08:21:08;;;;;;;9.17;6.43;;;19.90;99.90;;;;;;5056191;28;20209;-66
2023/09/16 08:23:36;;;;;;;12.03;7.30;;;20.20;99.90;;;;;;5058517;28;20598;-65
2023/09/16 08:26:05;;;;;;;13.63;8.03;;;20.30;99.90;;;;;;5058631;28;20752;-65
2023/09/16 08:28:35;;;;;;;9.40;7.10;;;20.40;99.90;;;;;;5052496;28;20267;-65
2023/09/16 08:31:04;;;;;;;14.83;7.60;;;20.50;99.90;;;;;;5055219;28;20307;-66
2023/09/16 08:33:33;;;;;;;7.40;5.67;;;20.70;99.90;;;;;;5060977;28;20258;-65
2023/09/16 08:36:01;;;;;;;10.33;7.10;;;20.80;99.90;;;;;;5059087;28;20211;-66
2023/09/16 08:38:30;;;;;;;8.77;7.00;;;20.90;99.90;;;;;;5051699;28;20337;-65
2023/09/16 08:41:05;;;;;;;6.63;6.00;;;21.00;99.90;;;;;;5051178;28;20324;-65
2023/09/16 08:43:40;;;;;;;11.90;7.00;;;21.10;99.90;;;;;;5051061;28;21036;-65
2023/09/16 08:46:11;;;;;;;8.47;6.57;;;21.20;99.90;;;;;;5052263;28;20266;-66
2023/09/16 08:48:43;;;;;;;7.80;7.00;;;21.20;99.90;;;;;;5069436;28;20903;-65
2023/09/16 08:51:13;;;;;;;7.77;6.53;;;21.30;99.90;;;;;;5055133;28;20266;-65
2023/09/16 08:53:45;;;;;;;9.27;6.80;;;21.40;99.90;;;;;;5055383;28;20439;-65
2023/09/16 08:56:15;;;;;;;6.93;6.23;;;21.50;99.90;;;;;;5053578;28;20226;-65
2023/09/16 08:58:46;;;;;;;8.97;6.60;;;21.70;99.90;;;;;;5056317;28;20711;-66
2023/09/16 09:01:17;;;;;;;10.47;7.27;;;21.90;99.90;;;;;;5046687;28;20226;-66
2023/09/16 09:03:46;;;;;;;6.60;6.00;;;22.00;99.90;;;;;;5044821;28;20311;-66
2023/09/16 09:06:15;;;;;;;6.77;6.10;;;22.20;99.90;;;;;;5046325;28;20202;-65
2023/09/16 09:08:57;;;;;;;7.87;6.47;;;22.30;99.90;;;;;;5056071;28;20190;-66
2023/09/16 09:11:26;;;;;;;6.07;5.47;;;22.50;99.90;;;;;;5055021;28;20689;-65
2023/09/16 09:13:56;;;;;;;9.60;6.43;;;22.60;99.90;;;;;;5057174;28;20214;-65
2023/09/16 09:16:25;;;;;;;6.68;5.90;;;22.60;99.90;;;;;;5051330;28;20458;-66
2023/09/16 09:18:56;;;;;;;7.00;6.30;;;22.70;99.90;;;;;;5055351;28;20285;-66
2023/09/16 09:21:25;;;;;;;5.80;5.27;;;22.90;99.90;;;;;;5058285;28;20223;-65
2023/09/16 09:23:54;;;;;;;7.13;5.47;;;23.00;99.90;;;;;;5057357;28;20286;-65
2023/09/16 09:26:22;;;;;;;5.87;5.37;;;23.20;99.90;;;;;;5053877;28;20222;-65
2023/09/16 09:28:51;;;;;;;7.33;4.97;;;23.40;99.90;;;;;;5054979;28;20231;-66
2023/09/16 09:31:24;;;;;;;6.17;5.67;;;23.60;99.90;;;;;;5054165;28;20274;-65
2023/09/16 09:33:53;;;;;;;6.43;5.80;;;23.70;99.90;;;;;;5047303;28;20321;-66
2023/09/16 09:36:35;;;;;;;5.13;4.80;;;23.70;99.90;;;;;;5037285;28;20244;-65
2023/09/16 09:39:03;;;;;;;5.53;5.00;;;23.60;99.90;;;;;;5051876;28;20210;-65
2023/09/16 09:41:42;;;;;;;9.30;5.53;;;23.70;99.90;;;;;;5053267;28;20238;-65
2023/09/16 09:44:11;;;;;;;8.97;6.10;;;23.80;99.90;;;;;;5053153;28;20670;-65
2023/09/16 09:46:41;;;;;;;6.20;5.60;;;24.00;99.90;;;;;;5049052;28;20913;-64
2023/09/16 09:49:12;;;;;;;5.40;4.90;;;24.10;99.90;;;;;;5047724;28;20224;-64
2023/09/16 09:51:42;;;;;;;7.80;5.30;;;24.10;99.90;;;;;;5048900;28;20221;-65
2023/09/16 09:54:11;;;;;;;5.03;4.57;;;24.20;99.90;;;;;;5049357;28;20212;-65
2023/09/16 09:56:41;;;;;;;4.80;4.40;;;24.20;99.90;;;;;;5055956;28;20240;-65
2023/09/16 09:59:12;;;;;;;6.30;4.57;;;24.40;99.90;;;;;;5055974;28;20670;-65
2023/09/16 10:01:42;;;;;;;4.90;4.50;;;24.50;99.90;;;;;;5041925;28;20228;-65
2023/09/16 10:04:11;;;;;;;5.83;5.10;;;24.50;99.90;;;;;;5050802;28;20219;-65
2023/09/16 10:06:40;;;;;;;4.77;4.47;;;24.50;99.90;;;;;;5055039;28;20217;-65
2023/09/16 10:09:08;;;;;;;5.20;4.63;;;24.50;99.90;;;;;;5051912;28;20288;-64
2023/09/16 10:11:37;;;;;;;5.87;4.57;;;24.60;99.90;;;;;;5050517;28;20243;-65
2023/09/16 10:14:06;;;;;;;8.70;4.07;;;24.70;99.90;;;;;;5050304;28;20294;-65
2023/09/16 10:16:35;;;;;;;4.57;4.27;;;24.90;99.90;;;;;;5054453;28;20228;-65
2023/09/16 10:19:06;;;;;;;5.63;4.23;;;25.00;99.90;;;;;;5055907;28;20240;-65
2023/09/16 10:21:35;;;;;;;4.00;3.70;;;25.10;99.90;;;;;;5055648;28;20235;-65
2023/09/16 10:24:04;;;;;;;4.77;4.40;;;25.30;99.90;;;;;;5054008;28;20276;-65
2023/09/16 10:26:33;;;;;;;4.03;3.77;;;25.50;99.90;;;;;;5052646;28;20586;-65
2023/09/16 10:29:04;;;;;;;9.00;4.17;;;25.50;99.90;;;;;;5050988;28;20224;-64
2023/09/16 10:31:34;;;;;;;3.47;3.37;;;25.30;99.90;;;;;;5052172;28;20227;-64
2023/09/16 10:34:05;;;;;;;6.20;4.00;;;25.30;99.90;;;;;;5050881;28;20216;-65
2023/09/16 10:36:36;;;;;;;5.90;3.70;;;25.50;99.90;;;;;;5053074;28;20240;-65
2023/09/16 10:39:06;;;;;;;4.20;3.80;;;25.50;99.90;;;;;;5051815;28;20193;-65
2023/09/16 10:41:36;;;;;;;3.63;3.43;;;25.70;99.90;;;;;;5056573;28;20220;-65
2023/09/16 10:44:05;;;;;;;4.30;4.00;;;25.70;99.90;;;;;;5054941;28;20260;-65
2023/09/16 10:46:35;;;;;;;4.60;4.13;;;25.70;99.90;;;;;;5045250;28;20256;-65
2023/09/16 10:49:05;;;;;;;4.50;4.10;;;25.60;99.90;;;;;;5048294;28;20245;-65
2023/09/16 10:51:39;;;;;;;3.87;3.57;;;25.70;99.90;;;;;;5050205;28;20256;-65
2023/09/16 10:54:12;;;;;;;6.37;3.50;;;25.80;99.90;;;;;;5047951;28;20199;-65
2023/09/16 10:56:45;;;;;;;4.10;3.70;;;25.90;99.90;;;;;;5048927;28;20287;-65
2023/09/16 10:59:17;;;;;;;4.00;3.60;;;26.00;99.90;;;;;;5048911;28;20236;-65
2023/09/16 11:01:50;;;;;;;3.75;3.55;;;26.20;99.90;;;;;;5051981;28;20717;-65
2023/09/16 11:04:21;;;;;;;7.43;3.97;;;26.50;99.90;;;;;;5054098;28;20696;-65
2023/09/16 11:06:51;;;;;;;4.32;3.67;;;26.50;99.90;;;;;;5052788;28;20667;-65
2023/09/16 11:09:21;;;;;;;4.27;3.63;;;26.50;99.90;;;;;;5051501;28;20659;-65
2023/09/16 11:11:51;;;;;;;3.53;3.28;;;26.60;99.90;;;;;;5056619;28;20221;-65
2023/09/16 11:14:21;;;;;;;5.03;3.83;;;26.70;99.90;;;;;;5046315;28;20244;-65
2023/09/16 11:16:51;;;;;;;3.88;3.58;;;26.60;99.90;;;;;;5055606;28;20221;-65
2023/09/16 11:19:24;;;;;;;4.03;3.72;;;26.60;99.90;;;;;;5055723;28;20219;-64
2023/09/16 11:21:53;;;;;;;3.90;3.65;;;26.90;99.90;;;;;;5033496;28;20729;-65
2023/09/16 11:24:22;;;;;;;3.90;3.72;;;27.10;99.90;;;;;;5044803;28;20273;-65
2023/09/16 11:26:51;;;;;;;3.88;3.58;;;27.10;99.90;;;;;;5055101;28;20731;-66
2023/09/16 11:29:21;;;;;;;3.20;3.05;;;27.20;99.90;;;;;;5049498;28;20235;-66
2023/09/16 11:31:50;;;;;;;3.67;3.47;;;27.20;99.90;;;;;;5044761;28;20269;-65
2023/09/16 11:34:24;;;;;;;3.45;3.25;;;26.90;99.90;;;;;;5049499;28;20298;-65
2023/09/16 11:36:54;;;;;;;6.03;3.38;;;26.90;99.90;;;;;;5053383;28;20308;-65
2023/09/16 11:39:32;;;;;;;3.50;3.30;;;27.00;99.90;;;;;;5047769;28;21939;-65
2023/09/16 11:42:01;;;;;;;4.88;3.25;;;27.10;99.90;;;;;;5055641;28;21679;-66
2023/09/16 11:44:30;;;;;;;3.67;3.38;;;27.20;99.90;;;;;;5025488;28;20646;-66
2023/09/16 11:47:01;;;;;;;6.43;3.75;;;27.00;99.90;;;;;;5041622;28;20225;-65
2023/09/16 11:49:33;;;;;;;3.25;3.15;;;27.00;99.90;;;;;;5044066;28;20312;-65
2023/09/16 11:52:02;;;;;;;3.85;3.55;;;27.10;99.90;;;;;;5040664;28;20230;-65
2023/09/16 11:54:31;;;;;;;4.28;3.60;;;27.30;99.90;;;;;;5038901;28;20221;-66
2023/09/16 11:56:59;;;;;;;4.53;3.72;;;27.40;99.90;;;;;;5042818;28;20541;-66
2023/09/16 11:59:28;;;;;;;4.32;3.92;;;27.60;99.90;;;;;;5019566;28;20230;-65
2023/09/16 12:01:57;;;;;;;3.65;3.45;;;27.80;99.90;;;;;;5029163;28;20218;-65
2023/09/16 12:04:27;;;;;;;3.50;3.30;;;28.00;99.90;;;;;;5025942;28;21389;-66
2023/09/16 12:06:59;;;;;;;3.80;3.50;;;28.20;99.90;;;;;;5023783;28;20737;-66
2023/09/16 12:09:27;;;;;;;4.63;3.70;;;28.30;99.90;;;;;;5022850;28;20745;-65
2023/09/16 12:11:56;;;;;;;5.28;3.83;;;28.30;99.90;;;;;;5016709;28;20879;-65
2023/09/16 12:14:25;;;;;;;4.00;3.45;;;28.40;99.90;;;;;;5017512;28;20314;-65
2023/09/16 12:16:54;;;;;;;4.00;3.60;;;28.40;99.90;;;;;;5020474;28;20588;-65
2023/09/16 12:19:22;;;;;;;4.00;3.75;;;28.10;99.90;;;;;;5025924;28;20252;-65
2023/09/16 12:21:51;;;;;;;4.15;3.85;;;28.00;99.90;;;;;;5023936;28;20232;-65
2023/09/16 12:24:22;;;;;;;9.38;4.05;;;28.10;99.90;;;;;;5026687;28;20315;-65
2023/09/16 12:26:51;;;;;;;3.75;3.53;;;28.00;99.90;;;;;;5024366;28;20203;-64
2023/09/16 12:29:20;;;;;;;4.22;3.92;;;28.00;99.90;;;;;;5030132;28;20215;-65
2023/09/16 12:31:50;;;;;;;3.80;3.60;;;28.00;99.90;;;;;;5028029;28;20245;-66
2023/09/16 12:34:19;;;;;;;4.03;3.83;;;27.90;99.90;;;;;;5018915;28;20227;-63
2023/09/16 12:36:50;;;;;;;4.35;3.95;;;27.80;99.90;;;;;;5031505;28;20321;-63
2023/09/16 12:39:22;;;;;;;10.23;3.90;;;27.60;99.90;;;;;;5031755;28;20236;-63
2023/09/16 12:41:51;;;;;;;4.22;3.63;;;27.60;99.90;;;;;;5025888;28;20545;-64
2023/09/16 12:44:40;;;;;;;4.85;4.10;;;27.50;99.90;;;;;;5027535;28;20677;-64
2023/09/16 12:47:10;;;;;;;4.07;3.78;;;27.40;99.90;;;;;;5026199;28;20230;-64
2023/09/16 12:49:40;;;;;;;4.82;3.72;;;27.50;99.90;;;;;;5020847;28;20233;-62
2023/09/16 12:52:09;;;;;;;4.50;4.10;;;27.70;99.90;;;;;;5028141;28;20874;-62
2023/09/16 12:54:42;;;;;;;4.53;4.00;;;27.80;99.90;;;;;;5034658;28;20227;-62